Time;durP1;ratioP1;P1;durP2;ratioP2;P2;SDS_P1;SDS_P2;PMS_P1;PMS_P2;Temp;Humidity;BMP_temperature;BMP_pressure;BME280_temperature;BME280_humidity;BME280_pressure;Samples;Min_cycle;Max_cycle;Signal;HPM_P1;HPM_P2
2021/07/19 00:00:26;;;;;;;4.45;2.17;;;;;;;19.80;66.93;101818.44;5043471;28;20468;-45
2021/07/19 00:02:54;;;;;;;4.63;2.72;;;;;;;19.78;67.24;101814.41;5050762;28;20150;-47
2021/07/19 00:05:23;;;;;;;4.32;2.58;;;;;;;19.73;67.35;101814.75;5021158;28;20052;-46
2021/07/19 00:07:53;;;;;;;6.90;4.32;;;;;;;19.71;67.51;101817.94;5046656;28;20071;-47
2021/07/19 00:10:21;;;;;;;15.35;8.98;;;;;;;19.68;67.59;101809.47;5041828;28;20052;-49
2021/07/19 00:12:49;;;;;;;19.10;10.80;;;;;;;19.61;68.02;101813.00;5047673;28;20053;-43
2021/07/19 00:15:23;;;;;;;15.00;11.65;;;;;;;19.60;68.22;101817.00;5029369;28;20052;-49
2021/07/19 00:17:51;;;;;;;20.70;13.00;;;;;;;19.57;68.53;101817.75;5046751;28;20629;-52
2021/07/19 00:20:18;;;;;;;14.82;8.70;;;;;;;19.58;68.60;101819.38;5047730;28;20052;-47
2021/07/19 00:22:46;;;;;;;9.20;7.10;;;;;;;19.57;68.40;101814.94;5046299;28;20094;-55
2021/07/19 00:25:15;;;;;;;8.80;6.53;;;;;;;19.53;68.79;101816.91;5045148;28;20502;-47
2021/07/19 00:27:44;;;;;;;7.72;6.28;;;;;;;19.50;68.92;101817.66;5043947;28;20186;-52
2021/07/19 00:30:14;;;;;;;8.20;5.82;;;;;;;19.45;69.29;101815.19;5045427;28;20824;-50
2021/07/19 00:32:44;;;;;;;10.25;5.53;;;;;;;19.44;69.25;101807.94;5025874;28;20087;-45
2021/07/19 00:35:12;;;;;;;6.55;4.85;;;;;;;19.48;69.20;101814.41;5045361;28;20490;-49
2021/07/19 00:37:40;;;;;;;6.95;4.38;;;;;;;19.51;69.21;101810.03;5046032;28;20056;-46
2021/07/19 00:40:19;;;;;;;7.78;4.43;;;;;;;19.53;69.53;101799.22;5045940;28;20037;-46
2021/07/19 00:42:47;;;;;;;6.85;4.15;;;;;;;19.56;69.04;101804.91;5046606;28;20137;-47
2021/07/19 00:45:18;;;;;;;5.43;3.95;;;;;;;19.60;69.16;101800.13;5047494;28;20056;-54
2021/07/19 00:47:49;;;;;;;5.65;2.58;;;;;;;19.58;69.08;101805.31;5046393;28;20708;-44
2021/07/19 00:50:17;;;;;;;3.28;2.58;;;;;;;19.58;69.22;101796.91;5047063;28;20086;-46
2021/07/19 00:52:47;;;;;;;5.35;1.98;;;;;;;19.55;69.14;101794.84;5045831;28;20135;-45
2021/07/19 00:55:16;;;;;;;2.78;1.58;;;;;;;19.45;69.41;101792.72;5026155;28;20053;-48
2021/07/19 00:57:48;;;;;;;3.47;1.40;;;;;;;19.33;70.08;101795.69;5027765;28;20057;-44
2021/07/19 01:00:20;;;;;;;6.32;1.75;;;;;;;19.28;69.72;101796.03;5044638;28;20060;-47
2021/07/19 01:02:49;;;;;;;4.28;2.25;;;;;;;19.24;69.94;101789.56;5044448;28;20056;-46
2021/07/19 01:05:18;;;;;;;4.30;2.22;;;;;;;19.28;69.91;101787.59;5046135;28;20464;-46
2021/07/19 01:07:47;;;;;;;3.58;2.30;;;;;;;19.32;69.97;101792.09;5048860;28;20049;-47
2021/07/19 01:10:18;;;;;;;4.70;2.58;;;;;;;19.32;69.92;101788.47;5051421;28;20164;-45
2021/07/19 01:12:48;;;;;;;6.22;3.53;;;;;;;19.28;69.99;101790.41;5050092;28;20080;-45
2021/07/19 01:15:16;;;;;;;3.30;2.35;;;;;;;19.24;70.13;101781.97;5047977;28;20095;-50
2021/07/19 01:17:43;;;;;;;4.63;2.55;;;;;;;19.24;70.40;101792.38;5047989;28;20136;-47
2021/07/19 01:20:12;;;;;;;5.85;3.25;;;;;;;19.24;70.49;101786.75;5049688;28;20973;-49
2021/07/19 01:23:03;;;;;;;5.03;2.28;;;;;;;19.18;71.17;101788.25;5047477;28;20517;-49
2021/07/19 01:25:45;;;;;;;2.25;1.90;;;;;;;19.10;71.41;101783.72;5049924;28;20807;-50
2021/07/19 01:28:33;;;;;;;3.28;2.15;;;;;;;19.08;71.21;101786.09;5048391;28;20059;-48
2021/07/19 01:31:07;;;;;;;3.20;1.85;;;;;;;19.13;70.73;101791.41;5047320;28;20513;-50
2021/07/19 01:33:35;;;;;;;4.75;1.92;;;;;;;19.11;70.72;101788.97;5033410;28;20134;-50
2021/07/19 01:36:04;;;;;;;5.00;2.40;;;;;;;19.11;71.09;101779.75;5049007;28;20065;-46
2021/07/19 01:38:31;;;;;;;5.35;2.10;;;;;;;19.13;71.11;101788.59;5049122;28;20055;-47
2021/07/19 01:41:00;;;;;;;4.72;2.58;;;;;;;19.12;70.76;101781.34;5048996;28;20063;-49
2021/07/19 01:43:27;;;;;;;2.38;2.08;;;;;;;19.07;70.97;101776.88;5051099;28;20099;-51
2021/07/19 01:45:55;;;;;;;2.78;1.92;;;;;;;19.04;71.04;101782.44;5049861;28;20080;-49
2021/07/19 01:48:23;;;;;;;3.20;1.95;;;;;;;18.99;71.44;101769.53;5049447;28;20049;-44
2021/07/19 01:50:51;;;;;;;2.90;1.40;;;;;;;18.99;71.12;101775.16;5048830;28;20068;-51
2021/07/19 01:53:19;;;;;;;4.47;1.48;;;;;;;18.96;71.36;101770.28;5047941;28;20064;-48
2021/07/19 01:55:49;;;;;;;5.00;2.15;;;;;;;18.95;71.18;101773.47;5047839;28;20053;-44
2021/07/19 01:58:17;;;;;;;1.48;0.95;;;;;;;18.90;71.56;101765.38;5045048;28;20053;-52
2021/07/19 02:00:47;;;;;;;4.72;1.30;;;;;;;18.90;71.48;101771.00;5048333;28;20071;-45
2021/07/19 02:03:15;;;;;;;2.80;1.43;;;;;;;18.87;71.23;101766.94;5047852;28;20053;-44
2021/07/19 02:05:44;;;;;;;1.15;0.95;;;;;;;18.85;71.47;101763.69;5027722;28;20198;-46
2021/07/19 02:08:15;;;;;;;2.40;0.95;;;;;;;18.74;71.78;101769.13;5047768;28;20789;-47
2021/07/19 02:10:53;;;;;;;2.00;0.88;;;;;;;18.71;72.11;101761.50;5048952;28;20132;-48
2021/07/19 02:13:25;;;;;;;2.45;1.00;;;;;;;18.70;71.86;101762.66;5027770;28;20502;-44
2021/07/19 02:15:56;;;;;;;4.35;0.90;;;;;;;18.74;71.65;101755.09;5026899;28;20049;-49
2021/07/19 02:18:24;;;;;;;3.85;0.80;;;;;;;18.77;71.49;101757.16;5028782;28;20063;-52
2021/07/19 02:20:54;;;;;;;2.38;0.63;;;;;;;18.76;71.46;101761.16;5027538;28;20454;-46
2021/07/19 02:23:23;;;;;;;2.45;0.70;;;;;;;18.70;71.74;101759.84;5026163;28;20154;-51
2021/07/19 02:25:54;;;;;;;1.90;1.00;;;;;;;18.64;71.86;101768.94;5029856;28;20084;-44
2021/07/19 02:28:21;;;;;;;1.38;0.55;;;;;;;18.62;71.71;101755.31;5029072;28;20058;-46
2021/07/19 02:30:48;;;;;;;2.00;1.10;;;;;;;18.63;71.83;101758.94;5028206;28;20168;-43
2021/07/19 02:33:20;;;;;;;5.70;1.45;;;;;;;18.58;71.86;101754.47;5028259;28;20077;-45
2021/07/19 02:35:54;;;;;;;2.67;0.50;;;;;;;18.57;72.47;101752.81;5026792;28;20052;-45
2021/07/19 02:38:22;;;;;;;2.20;0.80;;;;;;;18.58;72.00;101750.84;5029561;28;20383;-52
2021/07/19 02:40:52;;;;;;;3.83;0.63;;;;;;;18.58;71.89;101748.03;5025318;28;20526;-49
2021/07/19 02:43:23;;;;;;;1.23;0.52;;;;;;;18.56;72.03;101745.59;5027587;28;20060;-51
2021/07/19 02:45:52;;;;;;;1.17;0.57;;;;;;;18.56;72.28;101744.81;5027761;28;20483;-46
2021/07/19 02:48:20;;;;;;;2.88;0.88;;;;;;;18.57;72.12;101732.38;5027572;28;20060;-47
2021/07/19 02:50:50;;;;;;;3.80;1.45;;;;;;;18.57;72.15;101738.81;5029105;28;20063;-48
2021/07/19 02:53:18;;;;;;;3.17;0.98;;;;;;;18.56;72.28;101730.78;5027891;28;20060;-50
2021/07/19 02:55:46;;;;;;;1.75;1.00;;;;;;;18.56;72.19;101737.19;5028448;28;20068;-52
2021/07/19 02:58:16;;;;;;;2.40;1.30;;;;;;;18.54;72.48;101725.53;5026473;28;20061;-51
2021/07/19 03:00:48;;;;;;;3.05;1.20;;;;;;;18.56;72.41;101739.97;5026715;28;20048;-46
2021/07/19 03:03:28;;;;;;;5.32;1.05;;;;;;;18.58;72.41;101732.03;5029735;28;20052;-51
2021/07/19 03:06:08;;;;;;;2.58;1.00;;;;;;;18.56;72.53;101733.59;5026477;28;20107;-44
2021/07/19 03:08:38;;;;;;;1.63;0.95;;;;;;;18.54;72.43;101730.31;5026764;28;20048;-45
2021/07/19 03:11:12;;;;;;;2.58;1.08;;;;;;;18.54;72.68;101731.13;5028976;28;20096;-46
2021/07/19 03:13:43;;;;;;;1.25;0.90;;;;;;;18.55;72.54;101727.16;5036424;28;20067;-51
2021/07/19 03:16:13;;;;;;;3.55;0.88;;;;;;;18.51;72.55;101717.84;5046311;28;20057;-48
2021/07/19 03:18:45;;;;;;;2.00;1.05;;;;;;;18.51;72.75;101722.66;5046446;28;20045;-47
2021/07/19 03:21:15;;;;;;;2.20;1.00;;;;;;;18.50;72.82;101724.69;5046766;28;20155;-44
2021/07/19 03:23:44;;;;;;;2.08;0.77;;;;;;;18.52;72.73;101722.28;5044613;28;20052;-46
2021/07/19 03:26:11;;;;;;;1.40;1.05;;;;;;;18.50;72.67;101724.69;5048353;28;20064;-47
2021/07/19 03:28:42;;;;;;;3.55;1.08;;;;;;;18.49;72.86;101725.84;5048124;28;20063;-44
2021/07/19 03:31:09;;;;;;;1.52;1.00;;;;;;;18.49;72.74;101714.63;5047076;28;20136;-46
2021/07/19 03:33:46;;;;;;;2.15;0.70;;;;;;;18.46;72.91;101712.53;5046921;28;20052;-50
2021/07/19 03:36:14;;;;;;;3.63;0.90;;;;;;;18.45;72.90;101722.16;5045580;28;20052;-44
2021/07/19 03:38:43;;;;;;;3.13;0.90;;;;;;;18.44;72.90;101712.13;5048962;28;20057;-51
2021/07/19 03:41:13;;;;;;;1.45;0.60;;;;;;;18.42;73.11;101716.47;5047468;28;20056;-45
2021/07/19 03:43:42;;;;;;;2.35;0.80;;;;;;;18.43;73.09;101706.88;5046319;28;20132;-47
2021/07/19 03:46:10;;;;;;;1.10;0.70;;;;;;;18.42;72.94;101705.25;5045080;28;20052;-42
2021/07/19 03:48:37;;;;;;;4.07;0.80;;;;;;;18.38;73.31;101707.19;5046421;28;20049;-43
2021/07/19 03:51:06;;;;;;;1.05;0.90;;;;;;;18.36;73.24;101707.56;5048727;28;20555;-49
2021/07/19 03:53:33;;;;;;;2.00;0.90;;;;;;;18.35;73.43;101700.34;5044600;28;20083;-49
2021/07/19 03:56:00;;;;;;;2.15;0.82;;;;;;;18.34;73.55;101709.94;5046103;28;20044;-44
2021/07/19 03:58:30;;;;;;;2.88;1.52;;;;;;;18.27;73.86;101705.00;5044705;28;20062;-47
2021/07/19 04:00:58;;;;;;;5.65;2.08;;;;;;;18.29;73.69;101703.84;5046520;28;20059;-43
2021/07/19 04:03:31;;;;;;;2.75;0.65;;;;;;;18.30;73.88;101700.66;5045987;28;20159;-47
2021/07/19 04:06:00;;;;;;;2.17;0.63;;;;;;;18.29;73.83;101698.22;5044872;28;20456;-47
2021/07/19 04:08:32;;;;;;;2.95;1.05;;;;;;;18.29;73.86;101696.25;5047052;28;20056;-43
2021/07/19 04:10:59;;;;;;;1.30;1.10;;;;;;;18.27;73.73;101698.59;5046201;28;21052;-44
2021/07/19 04:13:29;;;;;;;7.85;1.40;;;;;;;18.27;73.95;101698.59;5046264;28;20053;-43
2021/07/19 04:15:58;;;;;;;1.80;0.93;;;;;;;18.26;73.89;101691.38;5045679;28;20052;-46
2021/07/19 04:18:25;;;;;;;4.18;1.33;;;;;;;18.22;74.19;101690.50;5046789;28;20049;-43
2021/07/19 04:20:54;;;;;;;3.35;1.15;;;;;;;18.21;74.33;101694.50;5046356;28;20053;-48
2021/07/19 04:23:22;;;;;;;4.68;0.90;;;;;;;18.18;74.37;101700.84;5046239;28;20059;-45
2021/07/19 04:25:49;;;;;;;6.15;0.90;;;;;;;18.17;74.44;101693.63;5044988;28;20460;-46
2021/07/19 04:28:21;;;;;;;3.08;1.50;;;;;;;18.15;74.70;101696.81;5048341;28;20056;-44
2021/07/19 04:30:50;;;;;;;4.45;1.15;;;;;;;18.14;74.61;101697.16;5045118;28;20084;-43
2021/07/19 04:33:18;;;;;;;5.40;1.40;;;;;;;18.14;74.62;101694.34;5044801;28;20084;-42
2021/07/19 04:35:49;;;;;;;5.32;1.20;;;;;;;18.15;74.60;101690.38;5045333;28;20132;-42
2021/07/19 04:38:21;;;;;;;5.60;1.73;;;;;;;18.13;74.70;101695.56;5046518;28;20138;-43
2021/07/19 04:40:52;;;;;;;2.90;0.90;;;;;;;18.15;74.78;101698.78;5046650;28;20059;-49
2021/07/19 04:43:21;;;;;;;2.40;1.00;;;;;;;18.17;74.65;101699.22;5050803;28;20110;-45
2021/07/19 04:45:49;;;;;;;6.35;1.20;;;;;;;18.16;74.84;101697.63;5050060;28;20155;-42
2021/07/19 04:48:17;;;;;;;4.00;1.20;;;;;;;18.11;75.10;101683.88;5052244;28;20053;-47
2021/07/19 04:50:46;;;;;;;6.22;1.20;;;;;;;18.14;74.97;101695.16;5047704;28;21823;-47
2021/07/19 04:53:15;;;;;;;3.53;1.23;;;;;;;18.16;75.18;101680.81;5051393;28;20057;-44
2021/07/19 04:55:52;;;;;;;6.18;1.30;;;;;;;18.16;75.17;101689.22;5049686;28;20055;-49
2021/07/19 04:58:22;;;;;;;2.83;1.45;;;;;;;18.19;75.01;101682.84;5049855;28;20063;-43
2021/07/19 05:00:52;;;;;;;1.75;0.82;;;;;;;18.15;75.26;101690.38;5048392;28;20068;-46
2021/07/19 05:03:23;;;;;;;2.80;1.05;;;;;;;18.17;75.21;101694.44;5050356;28;20072;-45
2021/07/19 05:05:52;;;;;;;4.00;0.93;;;;;;;18.15;75.27;101691.19;5048302;28;20456;-45
2021/07/19 05:08:20;;;;;;;4.07;1.08;;;;;;;18.19;75.24;101691.25;5049661;28;20413;-47
2021/07/19 05:10:52;;;;;;;3.70;1.10;;;;;;;18.18;75.36;101696.06;5050952;28;20045;-46
2021/07/19 05:13:20;;;;;;;4.28;0.93;;;;;;;18.21;75.41;101697.31;5049984;28;20057;-44
2021/07/19 05:15:48;;;;;;;2.85;1.05;;;;;;;18.22;75.22;101698.91;5046499;28;20135;-43
2021/07/19 05:18:18;;;;;;;1.85;1.13;;;;;;;18.22;75.29;101691.31;5051347;28;20056;-50
2021/07/19 05:20:50;;;;;;;5.70;0.93;;;;;;;18.23;75.52;101692.94;5048167;28;20040;-43
2021/07/19 05:23:24;;;;;;;5.45;1.95;;;;;;;18.25;75.70;101695.34;5049377;28;20052;-48
2021/07/19 05:25:51;;;;;;;4.97;1.20;;;;;;;18.27;75.29;101692.19;5049783;28;20051;-42
2021/07/19 05:28:18;;;;;;;6.47;1.42;;;;;;;18.29;75.40;101696.25;5030598;28;20052;-46
2021/07/19 05:30:50;;;;;;;5.05;1.13;;;;;;;18.31;75.60;101702.28;5049871;28;20049;-43
2021/07/19 05:33:20;;;;;;;4.93;1.20;;;;;;;18.35;75.34;101689.13;5051721;28;20058;-43
2021/07/19 05:35:46;;;;;;;3.78;1.00;;;;;;;18.39;75.26;101694.78;5049961;28;20386;-44
2021/07/19 05:38:14;;;;;;;2.95;1.20;;;;;;;18.39;75.23;101689.19;5048875;28;20311;-46
2021/07/19 05:40:42;;;;;;;3.03;1.17;;;;;;;18.38;75.47;101693.97;5049532;28;20045;-43
2021/07/19 05:43:09;;;;;;;3.92;1.40;;;;;;;18.39;75.45;101698.41;5048504;28;20058;-43
2021/07/19 05:45:37;;;;;;;2.65;1.02;;;;;;;18.39;75.56;101701.22;5047794;28;20076;-45
2021/07/19 05:48:05;;;;;;;4.55;0.95;;;;;;;18.40;75.42;101702.03;5048900;28;20155;-43
2021/07/19 05:50:33;;;;;;;3.95;1.33;;;;;;;18.41;75.68;101698.84;5048961;28;20779;-44
2021/07/19 05:52:59;;;;;;;2.80;1.17;;;;;;;18.41;75.65;101703.63;5047098;28;20052;-43
2021/07/19 05:55:27;;;;;;;3.85;1.25;;;;;;;18.41;75.76;101704.44;5049386;28;20059;-43
2021/07/19 05:57:59;;;;;;;4.55;1.17;;;;;;;18.42;76.00;101703.28;5049331;28;20067;-45
2021/07/19 06:00:26;;;;;;;6.43;1.42;;;;;;;18.41;75.70;101700.81;5046374;28;20063;-48
2021/07/19 06:02:53;;;;;;;2.90;1.00;;;;;;;18.42;76.03;101706.09;5029385;28;20048;-42
2021/07/19 06:05:20;;;;;;;5.50;1.60;;;;;;;18.46;75.96;101704.13;5047796;28;20254;-43
2021/07/19 06:07:47;;;;;;;6.00;1.08;;;;;;;18.52;75.94;101704.66;5050469;28;20084;-46
2021/07/19 06:10:14;;;;;;;5.13;1.20;;;;;;;18.59;75.77;101704.75;5049459;28;22134;-45
2021/07/19 06:12:42;;;;;;;4.25;1.55;;;;;;;18.62;75.91;101704.00;5046103;28;20131;-42
2021/07/19 06:15:11;;;;;;;5.38;1.40;;;;;;;18.68;76.00;101700.53;5047176;28;20048;-43
2021/07/19 06:17:38;;;;;;;4.60;1.73;;;;;;;18.78;75.83;101699.88;5046454;28;20049;-44
2021/07/19 06:20:09;;;;;;;7.72;2.58;;;;;;;18.88;75.93;101703.22;5048847;28;20053;-43
2021/07/19 06:22:35;;;;;;;3.22;1.33;;;;;;;18.83;76.14;101696.72;5044626;28;20084;-48
2021/07/19 06:25:04;;;;;;;3.92;1.45;;;;;;;18.96;76.13;101697.31;5044554;28;20057;-43
2021/07/19 06:27:35;;;;;;;4.10;1.50;;;;;;;19.00;75.81;101695.38;5048192;28;20060;-43
2021/07/19 06:30:06;;;;;;;8.25;1.85;;;;;;;19.02;75.61;101703.41;5048955;28;20063;-49
2021/07/19 06:32:33;;;;;;;3.90;1.70;;;;;;;19.09;75.51;101706.34;5047444;28;20051;-45
2021/07/19 06:35:00;;;;;;;4.53;1.80;;;;;;;19.14;75.63;101703.19;5047068;28;20080;-44
2021/07/19 06:37:29;;;;;;;4.38;1.90;;;;;;;19.16;75.42;101700.81;5049111;28;20430;-46
2021/07/19 06:39:56;;;;;;;4.78;1.75;;;;;;;19.16;75.37;101690.41;5046435;28;21374;-48
2021/07/19 06:42:23;;;;;;;4.03;1.83;;;;;;;19.19;75.80;101700.06;5048148;28;20049;-45
2021/07/19 06:44:54;;;;;;;4.53;1.90;;;;;;;19.20;75.54;101694.03;5045571;28;20080;-44
2021/07/19 06:47:21;;;;;;;4.77;1.60;;;;;;;19.25;75.25;101698.50;5049544;28;20400;-47
2021/07/19 06:49:48;;;;;;;2.38;1.30;;;;;;;19.24;74.96;101685.69;5037908;28;20052;-47
2021/07/19 06:52:15;;;;;;;4.57;1.70;;;;;;;19.25;74.91;101692.91;5046852;28;20060;-46
2021/07/19 06:54:42;;;;;;;4.60;1.55;;;;;;;19.29;74.68;101696.56;5046030;28;20044;-44
2021/07/19 06:57:09;;;;;;;5.03;1.60;;;;;;;19.23;74.68;101689.66;5044829;28;20040;-44
2021/07/19 06:59:36;;;;;;;6.18;1.50;;;;;;;19.23;74.58;101689.66;5045597;28;20080;-44
2021/07/19 07:02:03;;;;;;;3.33;1.48;;;;;;;19.22;74.59;101693.69;5046289;28;20132;-46
2021/07/19 07:04:31;;;;;;;10.55;2.25;;;;;;;19.19;74.56;101700.88;5047836;28;20484;-45
2021/07/19 07:06:58;;;;;;;2.40;1.15;;;;;;;19.27;74.53;101693.34;5045285;28;20052;-48
2021/07/19 07:09:26;;;;;;;4.40;1.52;;;;;;;19.38;74.50;101708.34;5046427;28;20160;-43
2021/07/19 07:12:13;;;;;;;4.13;1.20;;;;;;;19.40;74.45;101708.78;5046696;28;20057;-49
2021/07/19 07:14:39;;;;;;;3.38;1.25;;;;;;;19.48;74.25;101709.69;5045379;28;20068;-44
2021/07/19 07:17:06;;;;;;;4.68;1.48;;;;;;;19.57;74.15;101708.19;5045373;28;20119;-44
2021/07/19 07:19:33;;;;;;;3.88;1.15;;;;;;;19.70;73.96;101703.91;5048108;28;20052;-48
2021/07/19 07:22:00;;;;;;;8.77;1.45;;;;;;;19.86;73.93;101704.50;5043454;28;20520;-51
2021/07/19 07:24:27;;;;;;;3.58;1.50;;;;;;;20.03;73.69;101712.31;5046136;28;20111;-44
2021/07/19 07:26:54;;;;;;;4.20;1.60;;;;;;;20.23;73.37;101700.84;5047865;28;20057;-44
2021/07/19 07:29:22;;;;;;;2.40;1.20;;;;;;;20.38;73.09;101703.44;5046728;28;20049;-45
2021/07/19 07:31:48;;;;;;;2.38;1.00;;;;;;;20.51;73.09;101701.13;5043938;28;20135;-48
2021/07/19 07:34:15;;;;;;;4.88;1.67;;;;;;;20.60;72.86;101701.59;5047887;28;20136;-43
2021/07/19 07:36:42;;;;;;;5.75;1.50;;;;;;;20.75;72.88;101706.16;5044761;28;20419;-50
2021/07/19 07:39:09;;;;;;;2.60;1.00;;;;;;;20.89;73.04;101702.63;5045623;28;20064;-44
2021/07/19 07:41:36;;;;;;;5.38;1.30;;;;;;;21.01;72.76;101703.09;5047740;28;20068;-48
2021/07/19 07:44:03;;;;;;;3.75;1.60;;;;;;;21.05;72.08;101700.28;5046618;28;20472;-43
2021/07/19 07:46:31;;;;;;;2.22;1.35;;;;;;;21.13;72.01;101701.97;5047750;28;20167;-46
2021/07/19 07:48:57;;;;;;;1.80;1.08;;;;;;;21.33;72.01;101705.31;5045675;28;20128;-46
2021/07/19 07:51:24;;;;;;;3.67;1.73;;;;;;;21.49;71.36;101691.69;5047068;28;20540;-43
2021/07/19 07:53:51;;;;;;;2.45;1.30;;;;;;;21.65;71.34;101700.63;5046915;28;20063;-44
2021/07/19 07:56:18;;;;;;;4.60;1.60;;;;;;;21.82;70.96;101705.47;5031152;28;20053;-43
2021/07/19 07:58:45;;;;;;;4.85;1.00;;;;;;;22.03;70.81;101694.28;5028988;28;20052;-46
2021/07/19 08:01:11;;;;;;;3.50;1.38;;;;;;;22.21;70.24;101703.56;5046098;28;20493;-44
2021/07/19 08:03:39;;;;;;;6.57;1.20;;;;;;;22.46;69.36;101706.41;5046130;28;20064;-47
2021/07/19 08:06:06;;;;;;;4.88;1.30;;;;;;;22.84;68.11;101693.50;5049063;28;20584;-49
2021/07/19 08:08:33;;;;;;;3.50;1.48;;;;;;;23.26;66.69;101698.25;5045627;28;20053;-47
2021/07/19 08:11:00;;;;;;;4.53;1.02;;;;;;;23.75;65.05;101702.91;5046415;28;20048;-49
2021/07/19 08:13:27;;;;;;;2.65;1.05;;;;;;;24.25;63.46;101692.09;5046370;28;20144;-46
2021/07/19 08:15:54;;;;;;;3.35;1.10;;;;;;;24.74;61.60;101698.13;5043942;28;20051;-44
2021/07/19 08:18:21;;;;;;;3.67;1.75;;;;;;;25.25;59.89;101693.56;5046667;28;20107;-45
2021/07/19 08:20:48;;;;;;;6.18;1.77;;;;;;;25.67;58.69;101693.06;5033077;28;20059;-48
2021/07/19 08:23:15;;;;;;;3.20;1.17;;;;;;;26.07;57.33;101693.28;5043881;28;21207;-44
2021/07/19 08:25:42;;;;;;;4.05;1.20;;;;;;;26.26;56.18;101695.47;5043548;28;20056;-45
2021/07/19 08:28:09;;;;;;;7.65;1.42;;;;;;;26.50;54.99;101688.56;5042996;28;20057;-49
2021/07/19 08:30:35;;;;;;;3.33;1.17;;;;;;;26.73;54.58;101687.75;5040527;28;20494;-43
2021/07/19 08:33:03;;;;;;;2.92;1.40;;;;;;;26.84;53.35;101686.38;5044518;28;20053;-46
2021/07/19 08:35:30;;;;;;;8.00;1.55;;;;;;;27.07;52.49;101688.34;5043595;28;20397;-47
2021/07/19 08:37:57;;;;;;;7.18;0.95;;;;;;;27.26;51.71;101695.28;5030403;28;20094;-48
2021/07/19 08:40:25;;;;;;;3.88;1.40;;;;;;;27.32;51.60;101685.00;5048107;28;20525;-51
2021/07/19 08:42:55;;;;;;;2.85;1.05;;;;;;;27.51;50.97;101695.63;5043117;28;20053;-45
2021/07/19 08:45:24;;;;;;;5.72;1.27;;;;;;;27.77;50.60;101686.88;5043714;28;20106;-48
2021/07/19 08:47:52;;;;;;;6.05;1.13;;;;;;;27.96;49.56;101687.28;5050224;28;20063;-46
2021/07/19 08:50:21;;;;;;;5.25;1.92;;;;;;;28.11;49.08;101692.22;5046216;28;20464;-47
2021/07/19 08:52:53;;;;;;;5.43;1.92;;;;;;;28.16;48.63;101686.00;5042586;28;20052;-45
2021/07/19 08:55:21;;;;;;;3.92;1.50;;;;;;;28.24;48.68;101681.75;5043918;28;20148;-47
2021/07/19 08:57:49;;;;;;;4.80;1.38;;;;;;;28.51;48.15;101689.22;5046148;28;20052;-48
2021/07/19 09:00:21;;;;;;;2.80;1.35;;;;;;;28.50;47.64;101679.06;5041230;28;20170;-54
2021/07/19 09:02:52;;;;;;;7.22;1.60;;;;;;;28.64;47.33;101678.72;5031685;28;20041;-45
2021/07/19 09:05:20;;;;;;;3.58;1.63;;;;;;;28.84;47.19;101668.78;5047176;28;20040;-45
2021/07/19 09:07:47;;;;;;;3.47;1.40;;;;;;;29.03;46.56;101677.66;5045975;28;20228;-44
2021/07/19 09:10:24;;;;;;;4.35;1.20;;;;;;;29.02;46.04;101671.13;5042686;28;20075;-45
2021/07/19 09:12:50;;;;;;;5.40;1.40;;;;;;;29.06;46.38;101674.72;5046378;28;20061;-42
2021/07/19 09:15:28;;;;;;;2.10;0.90;;;;;;;29.16;44.82;101667.91;5042880;28;20044;-43
2021/07/19 09:17:57;;;;;;;2.25;1.13;;;;;;;29.17;45.86;101669.50;5052704;28;20052;-42
2021/07/19 09:20:33;;;;;;;5.30;1.35;;;;;;;29.12;45.06;101670.06;5046410;28;20040;-43
2021/07/19 09:23:00;;;;;;;5.60;1.17;;;;;;;29.14;45.13;101667.56;5047284;28;20135;-44
2021/07/19 09:25:28;;;;;;;5.72;1.38;;;;;;;29.29;44.92;101671.63;5036944;28;20049;-43
2021/07/19 09:28:10;;;;;;;2.60;1.20;;;;;;;29.37;44.25;101661.59;5044827;28;21394;-43
2021/07/19 09:30:40;;;;;;;7.13;1.67;;;;;;;29.60;44.56;101660.50;5044606;28;20056;-47
2021/07/19 09:33:10;;;;;;;11.80;1.73;;;;;;;29.78;44.03;101665.66;5049169;28;20052;-44
2021/07/19 09:35:41;;;;;;;7.38;1.60;;;;;;;29.89;43.92;101666.94;5045838;28;20757;-44
2021/07/19 09:38:12;;;;;;;4.32;1.63;;;;;;;30.04;43.39;101659.53;5044773;28;20053;-45
2021/07/19 09:40:41;;;;;;;3.65;1.20;;;;;;;29.90;43.46;101662.03;5048037;28;20059;-44
2021/07/19 09:43:18;;;;;;;2.50;1.05;;;;;;;29.88;43.34;101659.66;5047051;28;20104;-45
2021/07/19 09:45:56;;;;;;;13.15;1.92;;;;;;;29.81;43.06;101656.22;5046624;28;20045;-46
2021/07/19 09:48:22;;;;;;;13.57;1.92;;;;;;;29.93;43.30;101653.38;5054940;28;20159;-44
2021/07/19 09:50:51;;;;;;;3.90;1.33;;;;;;;30.11;43.03;101661.34;5046947;28;20493;-43
2021/07/19 09:53:38;;;;;;;4.13;1.58;;;;;;;30.19;42.74;101657.00;5045925;28;20520;-45
2021/07/19 09:56:16;;;;;;;32.58;3.95;;;;;;;30.02;41.42;101658.41;5045803;28;20490;-45
2021/07/19 09:58:47;;;;;;;5.32;1.70;;;;;;;29.87;42.77;101654.38;5046153;28;20181;-52
2021/07/19 10:01:29;;;;;;;9.65;2.40;;;;;;;29.72;42.95;101653.19;5037677;28;20060;-51
2021/07/19 10:04:19;;;;;;;9.10;1.92;;;;;;;29.89;42.64;101651.88;5047156;28;20044;-43
2021/07/19 10:06:48;;;;;;;4.18;1.80;;;;;;;29.91;42.79;101649.38;5051146;28;20058;-45
2021/07/19 10:09:19;;;;;;;6.90;1.48;;;;;;;29.90;42.95;101650.63;5044329;28;20049;-43
2021/07/19 10:11:54;;;;;;;8.98;1.85;;;;;;;29.94;42.91;101652.13;5049052;28;20410;-43
2021/07/19 10:14:29;;;;;;;2.67;1.58;;;;;;;29.86;42.46;101653.59;5044146;28;20052;-45
2021/07/19 10:17:00;;;;;;;7.38;1.33;;;;;;;29.66;42.99;101647.25;5051821;28;22102;-45
2021/07/19 10:19:28;;;;;;;10.65;1.52;;;;;;;29.65;42.99;101659.16;5047423;28;20698;-53
2021/07/19 10:21:55;;;;;;;3.67;1.83;;;;;;;29.52;43.13;101645.63;5050070;28;20045;-46
2021/07/19 10:24:22;;;;;;;4.63;1.40;;;;;;;29.39;43.62;101644.00;5043161;28;20402;-50
2021/07/19 10:26:50;;;;;;;4.13;1.30;;;;;;;29.21;43.80;101646.59;5046352;28;20059;-46
2021/07/19 10:29:18;;;;;;;8.75;1.90;;;;;;;29.03;44.02;101641.38;5047570;28;20131;-46
2021/07/19 10:31:45;;;;;;;4.78;2.28;;;;;;;29.22;43.89;101648.22;5049359;28;20052;-50
2021/07/19 10:34:14;;;;;;;13.80;2.60;;;;;;;29.13;44.32;101642.31;5046440;28;20064;-47
2021/07/19 10:36:47;;;;;;;2.53;1.20;;;;;;;29.19;44.34;101640.53;5048155;28;20159;-44
2021/07/19 10:39:21;;;;;;;6.40;1.55;;;;;;;29.02;44.68;101634.06;5044156;28;20478;-46
2021/07/19 10:42:00;;;;;;;4.95;1.88;;;;;;;28.94;44.68;101627.78;5045752;28;20491;-46
2021/07/19 10:44:36;;;;;;;10.02;3.88;;;;;;;28.89;45.01;101634.03;5042908;28;20048;-45
2021/07/19 10:47:16;;;;;;;2.95;1.67;;;;;;;28.72;44.60;101629.66;5042657;28;20209;-43
2021/07/19 10:50:00;;;;;;;9.40;3.55;;;;;;;28.38;45.32;101632.16;5043447;28;20053;-51
2021/07/19 10:52:37;;;;;;;2.88;1.67;;;;;;;28.43;45.80;101625.13;5047153;28;20841;-50
2021/07/19 10:55:06;;;;;;;11.52;6.30;;;;;;;28.29;46.08;101627.09;5046111;28;20668;-47
2021/07/19 10:57:46;;;;;;;8.77;2.00;;;;;;;28.17;46.24;101630.63;5047190;28;20044;-48
2021/07/19 11:00:20;;;;;;;6.30;1.92;;;;;;;28.23;46.22;101628.06;5042300;28;20413;-43
2021/07/19 11:02:47;;;;;;;5.07;2.10;;;;;;;28.16;46.13;101631.91;5042962;28;20068;-43
2021/07/19 11:05:18;;;;;;;6.18;1.98;;;;;;;27.97;46.25;101621.34;5047929;28;20054;-47
2021/07/19 11:07:45;;;;;;;7.93;2.13;;;;;;;27.81;46.67;101629.88;5049359;28;20048;-53
2021/07/19 11:10:17;;;;;;;4.30;1.58;;;;;;;27.75;47.65;101620.25;5044927;28;20049;-52
2021/07/19 11:12:47;;;;;;;5.78;2.20;;;;;;;27.53;47.93;101613.47;5042939;28;20139;-47
2021/07/19 11:15:15;;;;;;;3.85;1.77;;;;;;;27.39;48.26;101617.41;5043086;28;20148;-44
2021/07/19 11:17:42;;;;;;;5.07;2.55;;;;;;;27.25;48.50;101616.91;5051377;28;20175;-51
2021/07/19 11:20:13;;;;;;;15.32;6.63;;;;;;;27.15;48.60;101616.69;5044350;28;20058;-51
2021/07/19 11:22:40;;;;;;;5.70;2.03;;;;;;;27.01;49.26;101614.16;5044259;28;20140;-45
2021/07/19 11:25:14;;;;;;;5.25;2.65;;;;;;;26.89;49.54;101606.28;5046684;28;20520;-43
2021/07/19 11:27:46;;;;;;;7.00;2.95;;;;;;;26.81;49.33;101613.34;5042718;28;20131;-52
2021/07/19 11:30:25;;;;;;;2.28;1.88;;;;;;;26.68;50.18;101606.66;5042218;28;20186;-46
2021/07/19 11:32:52;;;;;;;3.35;1.88;;;;;;;26.48;50.70;101608.66;5030038;28;20128;-55
2021/07/19 11:35:23;;;;;;;5.53;2.22;;;;;;;26.41;50.57;101612.44;5029173;28;20055;-51